createdAt,value
2022-09-13T00:01:59.151Z,23.61
2022-09-13T00:04:26.500Z,23.64
2022-09-13T00:06:53.834Z,23.64
2022-09-13T00:09:21.109Z,23.63
2022-09-13T00:11:49.727Z,23.59
2022-09-13T00:14:16.971Z,23.53
2022-09-13T00:16:44.233Z,23.54
2022-09-13T00:19:11.496Z,23.52
2022-09-13T00:21:38.788Z,23.52
2022-09-13T00:24:06.263Z,23.52
2022-09-13T00:26:33.521Z,23.52
2022-09-13T00:29:02.096Z,23.51
2022-09-13T00:31:29.710Z,23.48
2022-09-13T00:33:59.847Z,23.44
2022-09-13T00:36:27.402Z,23.43
2022-09-13T00:38:54.790Z,23.40
2022-09-13T00:41:22.257Z,23.38
2022-09-13T00:43:53.264Z,23.33
2022-09-13T00:46:43.265Z,23.32
2022-09-13T00:49:17.077Z,23.39
2022-09-13T00:51:51.439Z,23.40
2022-09-13T00:54:22.820Z,23.40
2022-09-13T00:56:55.675Z,23.39
2022-09-13T00:59:28.593Z,23.37
2022-09-13T01:01:58.567Z,23.38
2022-09-13T01:04:31.290Z,23.42
2022-09-13T01:07:04.496Z,23.41
2022-09-13T01:09:36.649Z,23.43
2022-09-13T01:12:18.666Z,23.41
2022-09-13T01:14:47.667Z,23.44
2022-09-13T01:17:16.332Z,23.44
2022-09-13T01:19:43.786Z,23.45
2022-09-13T01:22:51.373Z,23.36
2022-09-13T01:26:08.243Z,23.31
2022-09-13T01:29:15.239Z,23.29
2022-09-13T01:31:54.739Z,23.33
2022-09-13T01:34:41.274Z,23.30
2022-09-13T01:37:38.416Z,23.23
2022-09-13T01:40:22.080Z,23.17
2022-09-13T01:43:14.922Z,23.00
2022-09-13T01:45:56.110Z,22.90
2022-09-13T01:48:42.898Z,22.85
2022-09-13T01:51:21.457Z,22.91
2022-09-13T01:54:06.662Z,22.94
2022-09-13T01:56:42.374Z,22.92
2022-09-13T01:59:20.957Z,22.82
2022-09-13T02:01:58.112Z,22.72
2022-09-13T02:04:35.222Z,22.61
2022-09-13T02:07:14.578Z,22.54
2022-09-13T02:09:48.726Z,22.48
2022-09-13T02:12:21.038Z,22.39
2022-09-13T02:14:57.506Z,22.39
2022-09-13T02:17:32.481Z,22.40
2022-09-13T02:20:10.103Z,22.33
2022-09-13T02:22:46.885Z,22.31
2022-09-13T02:25:17.667Z,22.29
2022-09-13T02:27:51.591Z,22.24
2022-09-13T02:30:19.679Z,22.21
2022-09-13T02:32:54.937Z,22.20
2022-09-13T02:35:31.389Z,22.18
2022-09-13T02:38:04.821Z,22.22
2022-09-13T02:40:42.180Z,22.20
2022-09-13T02:43:16.286Z,22.22
2022-09-13T02:45:52.960Z,22.20
2022-09-13T02:48:36.773Z,22.20
2022-09-13T02:51:17.114Z,22.27
2022-09-13T02:53:53.521Z,22.40
2022-09-13T02:56:30.112Z,22.50
2022-09-13T02:59:05.851Z,22.61
2022-09-13T03:01:36.797Z,22.66
2022-09-13T03:04:04.196Z,22.65
2022-09-13T03:06:32.934Z,22.61
2022-09-13T03:09:04.879Z,22.54
2022-09-13T03:11:52.019Z,22.46
2022-09-13T03:14:37.603Z,22.42
2022-09-13T03:17:20.970Z,22.38
2022-09-13T03:20:09.212Z,22.33
2022-09-13T03:23:34.586Z,22.25
2022-09-13T03:26:35.372Z,22.24
2022-09-13T03:29:24.710Z,22.23
2022-09-13T03:32:10.805Z,22.24
2022-09-13T03:34:48.604Z,22.24
2022-09-13T03:37:28.391Z,22.23
2022-09-13T03:40:03.892Z,22.23
2022-09-13T03:42:41.357Z,22.21
2022-09-13T03:45:13.318Z,22.20
2022-09-13T03:47:45.279Z,22.20
2022-09-13T03:50:19.607Z,22.23
2022-09-13T03:52:52.604Z,22.30
2022-09-13T03:55:22.458Z,22.30
2022-09-13T03:57:49.827Z,22.27
2022-09-13T04:00:18.300Z,22.27
2022-09-13T04:02:45.625Z,22.34
2022-09-13T04:05:13.130Z,22.43
2022-09-13T04:07:40.360Z,22.50
2022-09-13T04:10:13.565Z,22.56
2022-09-13T04:12:42.602Z,22.63
2022-09-13T04:15:10.289Z,22.71
2022-09-13T04:17:37.523Z,22.76
2022-09-13T04:20:05.886Z,22.78
2022-09-13T04:22:33.560Z,22.81
2022-09-13T04:25:02.613Z,22.84
2022-09-13T04:27:30.075Z,22.80
2022-09-13T04:29:58.787Z,22.78
2022-09-13T04:32:25.979Z,22.79
2022-09-13T04:34:53.557Z,22.81
2022-09-13T04:37:21.111Z,22.81
2022-09-13T04:39:48.379Z,22.82
2022-09-13T04:42:15.594Z,22.83
2022-09-13T04:44:44.853Z,22.86
2022-09-13T04:47:13.428Z,22.85
2022-09-13T04:49:40.803Z,22.83
2022-09-13T04:52:08.132Z,22.82
2022-09-13T04:54:35.420Z,22.82
2022-09-13T04:57:02.640Z,22.80
2022-09-13T04:59:29.877Z,22.77
2022-09-13T05:01:59.991Z,22.72
2022-09-13T05:04:28.699Z,22.66
2022-09-13T05:06:56.011Z,22.62
2022-09-13T05:09:23.267Z,22.60
2022-09-13T05:11:51.231Z,22.58
2022-09-13T05:14:18.515Z,22.56
2022-09-13T05:16:45.738Z,22.59
2022-09-13T05:19:13.411Z,22.63
2022-09-13T05:21:42.034Z,22.70
2022-09-13T05:24:09.651Z,22.77
2022-09-13T05:26:37.003Z,22.81
2022-09-13T05:29:05.114Z,22.86
2022-09-13T05:31:36.455Z,22.87
2022-09-13T05:34:07.231Z,22.92
2022-09-13T05:36:35.001Z,22.92
2022-09-13T05:39:31.901Z,22.92
2022-09-13T05:41:52.302Z,22.91
2022-09-13T05:44:19.609Z,22.96
2022-09-13T05:46:48.576Z,23.00
2022-09-13T05:49:16.157Z,23.06
2022-09-13T05:51:43.482Z,23.10
2022-09-13T05:54:13.717Z,23.11
2022-09-13T05:56:40.987Z,23.12
2022-09-13T05:59:12.582Z,23.11
2022-09-13T06:01:40.184Z,23.09
2022-09-13T06:04:07.479Z,23.08
2022-09-13T06:06:35.684Z,23.05
2022-09-13T06:09:03.491Z,23.02
2022-09-13T06:11:32.570Z,23.01
2022-09-13T06:14:00.082Z,23.01
2022-09-13T06:16:27.452Z,22.99
2022-09-13T06:18:55.043Z,22.98
2022-09-13T06:21:28.297Z,22.97
2022-09-13T06:23:56.902Z,22.98
2022-09-13T06:26:26.797Z,23.01
2022-09-13T06:28:58.126Z,23.02
2022-09-13T06:31:28.506Z,23.06
2022-09-13T06:33:59.550Z,23.10
2022-09-13T06:36:27.804Z,23.13
2022-09-13T06:38:55.525Z,23.13
2022-09-13T06:41:25.014Z,23.16
2022-09-13T06:43:57.554Z,23.18
2022-09-13T06:46:27.019Z,23.19
2022-09-13T06:48:55.271Z,23.20
2022-09-13T06:51:25.306Z,23.20
2022-09-13T06:53:56.685Z,23.21
2022-09-13T06:56:26.938Z,23.20
2022-09-13T06:58:59.828Z,23.21
2022-09-13T07:01:30.203Z,23.19
2022-09-13T07:04:02.278Z,23.19
2022-09-13T07:06:32.228Z,23.21
2022-09-13T07:09:01.783Z,23.24
2022-09-13T07:11:35.186Z,23.29
2022-09-13T07:14:06.690Z,23.31
2022-09-13T07:16:37.476Z,23.36
2022-09-13T07:19:07.974Z,23.39
2022-09-13T07:21:35.977Z,23.49
2022-09-13T07:24:04.309Z,23.65
2022-09-13T07:26:31.748Z,23.81
2022-09-13T07:29:02.751Z,23.89
2022-09-13T07:31:34.176Z,23.89
2022-09-13T07:34:04.047Z,23.90
2022-09-13T07:36:34.446Z,23.94
2022-09-13T07:39:03.061Z,23.97
2022-09-13T07:41:32.576Z,24.01
2022-09-13T07:44:07.995Z,24.03
2022-09-13T07:46:39.961Z,24.12
2022-09-13T07:49:07.982Z,24.20
2022-09-13T07:51:39.615Z,24.25
2022-09-13T07:54:12.069Z,24.30
2022-09-13T07:56:41.785Z,24.35
2022-09-13T07:59:14.489Z,24.38
2022-09-13T08:01:45.737Z,24.38
2022-09-13T08:04:17.782Z,24.33
2022-09-13T08:06:46.806Z,24.31
2022-09-13T08:09:16.777Z,24.30
2022-09-13T08:11:46.876Z,24.32
2022-09-13T08:14:16.763Z,24.33
2022-09-13T08:16:46.015Z,24.33
2022-09-13T08:19:16.580Z,24.31
2022-09-13T08:21:44.442Z,24.28
2022-09-13T08:24:16.698Z,24.26
2022-09-13T08:26:44.872Z,24.27
2022-09-13T08:29:13.978Z,24.27
2022-09-13T08:31:42.007Z,24.23
2022-09-13T08:34:14.562Z,24.22
2022-09-13T08:36:42.253Z,24.20
2022-09-13T08:39:13.512Z,24.17
2022-09-13T08:42:03.764Z,24.07
2022-09-13T08:44:36.379Z,24.05
2022-09-13T08:47:28.806Z,23.93
2022-09-13T08:50:07.113Z,23.89
2022-09-13T08:52:46.779Z,23.85
2022-09-13T08:55:26.506Z,23.89
2022-09-13T08:58:06.028Z,23.94
2022-09-13T09:00:39.709Z,24.00
2022-09-13T09:03:24.329Z,24.04
2022-09-13T09:05:54.454Z,24.18
2022-09-13T09:08:34.360Z,24.33
2022-09-13T09:11:10.230Z,24.45
2022-09-13T09:13:52.620Z,24.56
2022-09-13T09:16:36.244Z,24.92
2022-09-13T09:19:19.175Z,25.47
2022-09-13T09:21:51.535Z,26.69
2022-09-13T09:24:23.942Z,28.17
2022-09-13T09:26:53.878Z,29.76
2022-09-13T09:29:26.039Z,31.04
2022-09-13T09:32:09.418Z,32.01
2022-09-13T09:34:54.912Z,33.13
2022-09-13T09:37:26.043Z,33.64
2022-09-13T09:40:02.804Z,33.41
2022-09-13T09:42:39.531Z,32.62
2022-09-13T09:45:26.827Z,31.67
2022-09-13T09:47:56.790Z,30.96
2022-09-13T09:50:29.754Z,30.26
2022-09-13T09:53:06.468Z,29.83
2022-09-13T09:55:44.521Z,29.49
2022-09-13T09:58:16.766Z,29.16
2022-09-13T10:00:53.457Z,28.98
2022-09-13T10:03:26.819Z,29.74
2022-09-13T10:06:06.602Z,31.16
2022-09-13T10:08:38.152Z,32.66
2022-09-13T10:11:07.562Z,34.33
2022-09-13T10:13:35.964Z,35.73
2022-09-13T10:16:07.653Z,36.38
2022-09-13T10:18:45.360Z,35.87
2022-09-13T10:21:25.093Z,35.03
2022-09-13T10:24:21.250Z,34.62
2022-09-13T10:26:48.683Z,34.94
2022-09-13T10:29:18.750Z,35.81
2022-09-13T10:31:53.389Z,36.81
2022-09-13T10:34:25.541Z,37.67
2022-09-13T10:36:59.076Z,38.37
2022-09-13T10:39:34.241Z,38.62
2022-09-13T10:42:05.176Z,38.57
2022-09-13T10:44:41.626Z,38.24
2022-09-13T10:47:29.681Z,37.58
2022-09-13T10:49:59.692Z,36.52
2022-09-13T10:52:32.149Z,35.69
2022-09-13T10:55:31.674Z,35.01
2022-09-13T10:58:19.849Z,34.42
2022-09-13T11:01:30.238Z,34.13
2022-09-13T11:04:41.116Z,33.82
2022-09-13T11:07:37.541Z,33.47
2022-09-13T11:10:20.883Z,32.92
2022-09-13T11:12:59.568Z,32.38
2022-09-13T11:15:47.327Z,31.91
2022-09-13T11:19:15.763Z,31.23
2022-09-13T11:22:09.017Z,30.68
2022-09-13T11:25:01.856Z,30.30
2022-09-13T11:27:44.754Z,30.01
2022-09-13T11:30:19.557Z,29.84
2022-09-13T11:33:23.948Z,29.57
2022-09-13T11:36:30.725Z,29.46
2022-09-13T11:39:13.535Z,29.65
2022-09-13T11:41:51.953Z,29.81
2022-09-13T11:44:54.372Z,29.77
2022-09-13T11:47:44.431Z,29.65
2022-09-13T11:50:43.324Z,29.49
2022-09-13T11:53:50.433Z,29.27
2022-09-13T11:56:24.266Z,29.13
2022-09-13T11:58:59.469Z,29.06
2022-09-13T12:01:34.255Z,28.98
2022-09-13T12:04:13.922Z,28.96
2022-09-13T12:06:47.008Z,28.96
2022-09-13T12:09:22.077Z,28.94
2022-09-13T12:11:54.662Z,28.97
2022-09-13T12:14:27.275Z,28.98
2022-09-13T12:17:02.297Z,28.96
2022-09-13T12:19:43.812Z,29.00
2022-09-13T12:22:13.227Z,29.21
2022-09-13T12:24:47.132Z,29.40
2022-09-13T12:27:28.383Z,29.56
2022-09-13T12:30:17.343Z,29.58
2022-09-13T12:32:47.850Z,29.60
2022-09-13T12:35:28.866Z,29.57
2022-09-13T12:38:32.268Z,29.48
2022-09-13T12:41:35.989Z,29.44
2022-09-13T12:44:41.229Z,29.62
2022-09-13T12:47:54.892Z,29.92
2022-09-13T12:50:46.011Z,30.07
2022-09-13T12:54:00.400Z,30.02
2022-09-13T12:57:02.982Z,29.92
2022-09-13T13:00:13.098Z,29.73
2022-09-13T13:02:54.451Z,29.61
2022-09-13T13:05:32.441Z,29.43
2022-09-13T13:08:06.231Z,29.34
2022-09-13T13:10:38.147Z,29.21
2022-09-13T13:13:15.008Z,29.08
2022-09-13T13:16:04.590Z,28.90
2022-09-13T13:18:45.027Z,28.78
2022-09-13T13:21:40.865Z,28.67
2022-09-13T13:24:47.969Z,28.62
2022-09-13T13:27:48.070Z,28.66
2022-09-13T13:30:51.242Z,28.79
2022-09-13T13:33:23.443Z,28.97
2022-09-13T13:35:51.672Z,28.99
2022-09-13T13:38:47.758Z,28.91
2022-09-13T13:41:40.510Z,29.04
2022-09-13T13:44:57.992Z,29.41
2022-09-13T13:48:10.765Z,30.10
2022-09-13T13:51:29.289Z,30.15
2022-09-13T13:54:04.465Z,30.03
2022-09-13T13:56:48.535Z,29.81
2022-09-13T13:59:25.052Z,29.65
2022-09-13T14:01:59.279Z,29.52
2022-09-13T14:05:09.267Z,29.22
2022-09-13T14:08:20.909Z,29.01
2022-09-13T14:11:01.655Z,28.95
2022-09-13T14:13:49.850Z,28.89
2022-09-13T14:16:37.258Z,28.80
2022-09-13T14:19:23.861Z,28.69
2022-09-13T14:22:15.639Z,28.58
2022-09-13T14:24:46.494Z,28.58
2022-09-13T14:27:23.659Z,28.56
2022-09-13T14:29:55.372Z,28.55
2022-09-13T14:32:31.574Z,28.53
2022-09-13T14:35:06.637Z,28.46
2022-09-13T14:37:38.105Z,28.41
2022-09-13T14:40:18.432Z,28.35
2022-09-13T14:42:49.813Z,28.31
2022-09-13T14:45:21.627Z,28.27
2022-09-13T14:47:56.875Z,28.24
2022-09-13T14:50:30.019Z,28.22
2022-09-13T14:53:01.002Z,28.18
2022-09-13T14:55:33.010Z,28.18
2022-09-13T14:58:06.120Z,28.16
2022-09-13T15:00:45.500Z,28.15
2022-09-13T15:03:16.853Z,28.18
2022-09-13T15:05:53.460Z,28.18
2022-09-13T15:08:45.073Z,28.23
2022-09-13T15:11:28.855Z,28.26
2022-09-13T15:14:23.161Z,28.17
2022-09-13T15:16:53.585Z,28.20
2022-09-13T15:19:40.857Z,28.10
2022-09-13T15:22:31.810Z,28.00
2022-09-13T15:25:02.278Z,27.99
2022-09-13T15:27:42.730Z,27.87
2022-09-13T15:30:24.045Z,27.70
2022-09-13T15:33:06.681Z,27.75
2022-09-13T15:35:38.526Z,27.97
2022-09-13T15:38:21.390Z,28.14
2022-09-13T15:41:01.626Z,28.49
2022-09-13T15:43:30.947Z,28.69
2022-09-13T15:46:01.975Z,28.61
2022-09-13T15:48:32.005Z,28.46
2022-09-13T15:51:11.444Z,28.22
2022-09-13T15:53:40.959Z,28.06
2022-09-13T15:56:13.407Z,27.92
2022-09-13T15:58:40.690Z,27.78
2022-09-13T16:01:12.806Z,27.63
2022-09-13T16:03:40.507Z,27.45
2022-09-13T16:06:09.506Z,27.29
2022-09-13T16:08:37.769Z,27.12
2022-09-13T16:11:06.031Z,27.00
2022-09-13T16:13:33.776Z,26.88
2022-09-13T16:16:01.666Z,26.77
2022-09-13T16:18:30.701Z,26.65
2022-09-13T16:20:57.930Z,26.58
2022-09-13T16:23:25.284Z,26.53
2022-09-13T16:25:58.233Z,26.46
2022-09-13T16:28:26.537Z,26.41
2022-09-13T16:30:54.540Z,26.33
2022-09-13T16:33:21.997Z,26.25
2022-09-13T16:35:50.628Z,26.21
2022-09-13T16:38:18.306Z,26.16
2022-09-13T16:40:45.615Z,26.15
2022-09-13T16:43:13.612Z,26.12
2022-09-13T16:45:42.093Z,26.09
2022-09-13T16:48:09.680Z,26.05
2022-09-13T16:50:40.466Z,26.02
2022-09-13T16:53:09.486Z,25.97
2022-09-13T16:55:36.961Z,25.92
2022-09-13T16:58:04.551Z,25.88
2022-09-13T17:00:32.046Z,25.83
2022-09-13T17:02:59.497Z,25.79
2022-09-13T17:05:27.846Z,25.76
2022-09-13T17:07:55.183Z,25.72
2022-09-13T17:10:24.196Z,25.70
2022-09-13T17:12:51.793Z,25.68
2022-09-13T17:15:19.206Z,25.66
2022-09-13T17:17:46.496Z,25.62
2022-09-13T17:20:14.829Z,25.59
2022-09-13T17:22:42.318Z,25.54
2022-09-13T17:25:10.654Z,25.48
2022-09-13T17:27:39.368Z,25.41
2022-09-13T17:30:08.822Z,25.37
2022-09-13T17:32:36.147Z,25.31
2022-09-13T17:35:04.152Z,25.28
2022-09-13T17:37:31.547Z,25.23
2022-09-13T17:39:59.295Z,25.18
2022-09-13T17:42:27.151Z,25.16
2022-09-13T17:44:55.889Z,25.11
2022-09-13T17:47:23.299Z,25.07
2022-09-13T17:49:50.659Z,25.06
2022-09-13T17:52:17.941Z,25.00
2022-09-13T17:54:46.464Z,24.98
2022-09-13T17:57:15.585Z,24.98
2022-09-13T17:59:43.047Z,24.95
2022-09-13T18:02:11.805Z,24.92
2022-09-13T18:04:39.037Z,24.87
2022-09-13T18:07:06.670Z,24.86
2022-09-13T18:09:33.942Z,24.83
2022-09-13T18:12:01.938Z,24.78
2022-09-13T18:14:29.242Z,24.73
2022-09-13T18:16:57.962Z,24.67
2022-09-13T18:19:44.970Z,24.62
2022-09-13T18:22:13.612Z,24.54
2022-09-13T18:24:40.886Z,24.51
2022-09-13T18:27:08.236Z,24.51
2022-09-13T18:29:35.579Z,24.49
2022-09-13T18:32:03.016Z,24.49
2022-09-13T18:34:31.655Z,24.48
2022-09-13T18:36:58.907Z,24.45
2022-09-13T18:39:26.187Z,24.42
2022-09-13T18:41:53.505Z,24.39
2022-09-13T18:44:20.790Z,24.38
2022-09-13T18:46:49.223Z,24.38
2022-09-13T18:49:18.378Z,24.36
2022-09-13T18:51:47.057Z,24.34
2022-09-13T18:54:17.660Z,24.33
2022-09-13T18:56:45.631Z,24.31
2022-09-13T18:59:13.454Z,24.28
2022-09-13T19:01:43.785Z,24.23
2022-09-13T19:04:13.873Z,24.19
2022-09-13T19:06:43.636Z,24.14
2022-09-13T19:09:14.423Z,24.11
2022-09-13T19:11:47.225Z,24.07
2022-09-13T19:14:16.426Z,24.02
2022-09-13T19:16:44.201Z,23.96
2022-09-13T19:19:11.694Z,23.93
2022-09-13T19:21:39.287Z,23.93
2022-09-13T19:24:10.903Z,23.93
2022-09-13T19:26:44.575Z,23.90
2022-09-13T19:29:16.487Z,23.89
2022-09-13T19:31:48.365Z,23.86
2022-09-13T19:34:17.470Z,23.87
2022-09-13T19:36:45.601Z,23.87
2022-09-13T19:39:13.253Z,23.88
2022-09-13T19:41:42.340Z,23.89
2022-09-13T19:44:13.051Z,23.89
2022-09-13T19:46:42.348Z,23.91
2022-09-13T19:49:15.868Z,23.88
2022-09-13T19:51:49.981Z,23.85
2022-09-13T19:54:19.520Z,23.78
2022-09-13T19:56:48.351Z,23.72
2022-09-13T19:59:19.880Z,23.65
2022-09-13T20:01:48.352Z,23.59
2022-09-13T20:04:18.406Z,23.54
2022-09-13T20:06:48.433Z,23.48
2022-09-13T20:09:18.373Z,23.43
2022-09-13T20:11:48.773Z,23.37
2022-09-13T20:14:18.619Z,23.32
2022-09-13T20:16:46.913Z,23.27
2022-09-13T20:19:39.770Z,23.26
2022-09-13T20:22:06.965Z,23.18
2022-09-13T20:24:34.342Z,23.14
2022-09-13T20:27:02.967Z,23.10
2022-09-13T20:29:31.591Z,23.06
2022-09-13T20:31:59.904Z,23.02
2022-09-13T20:34:27.427Z,22.99
2022-09-13T20:36:54.839Z,22.95
2022-09-13T20:39:22.084Z,22.96
2022-09-13T20:41:50.057Z,22.97
2022-09-13T20:44:18.906Z,22.97
2022-09-13T20:46:46.263Z,22.93
2022-09-13T20:49:13.553Z,22.90
2022-09-13T20:51:40.876Z,22.89
2022-09-13T20:54:08.427Z,22.87
2022-09-13T20:56:36.212Z,22.85
2022-09-13T20:59:04.826Z,22.83
2022-09-13T21:01:34.311Z,22.83
2022-09-13T21:04:03.574Z,22.77
2022-09-13T21:06:39.135Z,22.69
2022-09-13T21:09:06.610Z,22.66
2022-09-13T21:11:36.768Z,22.61
2022-09-13T21:14:08.149Z,22.56
2022-09-13T21:16:40.809Z,22.51
2022-09-13T21:19:09.319Z,22.46
2022-09-13T21:21:40.588Z,22.41
2022-09-13T21:24:11.608Z,22.38
2022-09-13T21:26:43.342Z,22.34
2022-09-13T21:29:12.380Z,22.32
2022-09-13T21:31:41.067Z,22.29
2022-09-13T21:34:14.512Z,22.26
2022-09-13T21:36:43.078Z,22.22
2022-09-13T21:39:10.601Z,22.17
2022-09-13T21:41:38.259Z,22.13
2022-09-13T21:44:05.826Z,22.08
2022-09-13T21:46:36.004Z,22.04
2022-09-13T21:49:08.112Z,22.01
2022-09-13T21:51:37.731Z,22.01
2022-09-13T21:54:08.574Z,22.00
2022-09-13T21:56:38.600Z,22.00
2022-09-13T21:59:11.710Z,22.01
2022-09-13T22:01:41.628Z,22.03
2022-09-13T22:04:16.610Z,22.01
2022-09-13T22:06:45.422Z,22.03
2022-09-13T22:09:14.985Z,22.06
2022-09-13T22:11:46.097Z,22.04
2022-09-13T22:14:18.616Z,22.03
2022-09-13T22:16:46.822Z,22.02
2022-09-13T22:19:18.648Z,21.99
2022-09-13T22:21:49.885Z,21.96
2022-09-13T22:24:19.895Z,21.94
2022-09-13T22:26:50.053Z,21.94
2022-09-13T22:29:18.613Z,21.96
2022-09-13T22:31:48.470Z,22.00
2022-09-13T22:34:19.871Z,22.03
2022-09-13T22:36:47.672Z,22.08
2022-09-13T22:39:17.513Z,22.13
2022-09-13T22:41:45.614Z,22.17
2022-09-13T22:44:13.099Z,22.17
2022-09-13T22:46:42.550Z,22.16
2022-09-13T22:49:13.771Z,22.15
2022-09-13T22:51:45.018Z,22.08
2022-09-13T22:54:13.470Z,22.02
2022-09-13T22:56:41.324Z,21.97
2022-09-13T22:59:14.579Z,21.90
2022-09-13T23:01:42.766Z,21.85
2022-09-13T23:04:10.541Z,21.77
2022-09-13T23:06:38.651Z,21.73
2022-09-13T23:09:08.691Z,21.70
2022-09-13T23:11:38.889Z,21.65
2022-09-13T23:14:09.924Z,21.60
2022-09-13T23:16:40.936Z,21.59
2022-09-13T23:19:09.904Z,21.57
2022-09-13T23:21:37.927Z,21.55
2022-09-13T23:24:11.557Z,21.55
2022-09-13T23:26:39.901Z,21.56
2022-09-13T23:29:07.879Z,21.55
2022-09-13T23:31:38.878Z,21.56
2022-09-13T23:34:09.599Z,21.55
2022-09-13T23:36:39.734Z,21.50
2022-09-13T23:39:13.988Z,21.45
2022-09-13T23:41:41.339Z,21.41
2022-09-13T23:44:08.830Z,21.38
2022-09-13T23:46:36.260Z,21.34
2022-09-13T23:49:04.123Z,21.34
2022-09-13T23:51:31.892Z,21.36
2022-09-13T23:54:00.984Z,21.43
2022-09-13T23:56:32.984Z,21.48
2022-09-13T23:59:02.408Z,21.55
